sensor_id;sensor_type;location;lat;lon;timestamp;pressure;altitude;pressure_sealevel;temperature;humidity
9421;BME280;4749;51.398;5.466;2023-03-22T00:01:22;100810.38;;;10.96;100.00
9421;BME280;4749;51.398;5.466;2023-03-22T00:03:50;100807.72;;;10.93;100.00
9421;BME280;4749;51.398;5.466;2023-03-22T00:06:18;100816.47;;;10.92;100.00
9421;BME280;4749;51.398;5.466;2023-03-22T00:08:49;100808.59;;;10.87;100.00
9421;BME280;4749;51.398;5.466;2023-03-22T00:11:19;100810.38;;;10.85;100.00
9421;BME280;4749;51.398;5.466;2023-03-22T00:13:47;100796.31;;;10.83;100.00
9421;BME280;4749;51.398;5.466;2023-03-22T00:16:14;100798.06;;;10.83;100.00
9421;BME280;4749;51.398;5.466;2023-03-22T00:18:42;100794.56;;;10.81;100.00
9421;BME280;4749;51.398;5.466;2023-03-22T00:21:14;100787.56;;;10.78;100.00
9421;BME280;4749;51.398;5.466;2023-03-22T00:23:42;100791.03;;;10.76;100.00
9421;BME280;4749;51.398;5.466;2023-03-22T00:26:11;100788.41;;;10.76;100.00
9421;BME280;4749;51.398;5.466;2023-03-22T00:28:39;100781.41;;;10.76;100.00
9421;BME280;4749;51.398;5.466;2023-03-22T00:31:08;100777.91;;;10.79;100.00
9421;BME280;4749;51.398;5.466;2023-03-22T00:33:35;100783.19;;;10.79;100.00
9421;BME280;4749;51.398;5.466;2023-03-22T00:36:06;100770.88;;;10.76;100.00
9421;BME280;4749;51.398;5.466;2023-03-22T00:38:34;100772.63;;;10.74;100.00
9421;BME280;4749;51.398;5.466;2023-03-22T00:41:13;100768.25;;;10.71;100.00
9421;BME280;4749;51.398;5.466;2023-03-22T00:43:42;100761.25;;;10.69;100.00
9421;BME280;4749;51.398;5.466;2023-03-22T00:46:11;100763.88;;;10.66;100.00
9421;BME280;4749;51.398;5.466;2023-03-22T00:48:39;100753.34;;;10.64;100.00
9421;BME280;4749;51.398;5.466;2023-03-22T00:51:07;100754.22;;;10.63;100.00
9421;BME280;4749;51.398;5.466;2023-03-22T00:53:34;100753.34;;;10.66;100.00
9421;BME280;4749;51.398;5.466;2023-03-22T00:56:04;100747.22;;;10.67;100.00
9421;BME280;4749;51.398;5.466;2023-03-22T00:58:32;100740.22;;;10.69;100.00
9421;BME280;4749;51.398;5.466;2023-03-22T01:00:59;100736.72;;;10.70;100.00
9421;BME280;4749;51.398;5.466;2023-03-22T01:03:27;100741.09;;;10.71;100.00
9421;BME280;4749;51.398;5.466;2023-03-22T01:05:54;100738.47;;;10.73;100.00
9421;BME280;4749;51.398;5.466;2023-03-22T01:08:22;100725.31;;;10.73;100.00
9421;BME280;4749;51.398;5.466;2023-03-22T01:10:50;100721.81;;;10.74;100.00
9421;BME280;4749;51.398;5.466;2023-03-22T01:13:18;100713.91;;;10.72;100.00
9421;BME280;4749;51.398;5.466;2023-03-22T01:15:48;100717.44;;;10.73;100.00
9421;BME280;4749;51.398;5.466;2023-03-22T01:18:15;100718.31;;;10.78;100.00
9421;BME280;4749;51.398;5.466;2023-03-22T01:20:42;100718.31;;;10.81;100.00
9421;BME280;4749;51.398;5.466;2023-03-22T01:23:09;100715.66;;;10.82;100.00
9421;BME280;4749;51.398;5.466;2023-03-22T01:25:36;100702.50;;;10.84;100.00
9421;BME280;4749;51.398;5.466;2023-03-22T01:28:04;100703.41;;;10.86;100.00
9421;BME280;4749;51.398;5.466;2023-03-22T01:30:32;100693.75;;;10.83;100.00
9421;BME280;4749;51.398;5.466;2023-03-22T01:33:00;100692.00;;;10.84;100.00
9421;BME280;4749;51.398;5.466;2023-03-22T01:35:27;100680.63;;;10.85;100.00
9421;BME280;4749;51.398;5.466;2023-03-22T01:37:54;100675.38;;;10.85;100.00
9421;BME280;4749;51.398;5.466;2023-03-22T01:40:22;100672.72;;;10.82;100.00
9421;BME280;4749;51.398;5.466;2023-03-22T01:42:49;100660.44;;;10.81;100.00
9421;BME280;4749;51.398;5.466;2023-03-22T01:48:14;100656.94;;;10.83;100.00
9421;BME280;4749;51.398;5.466;2023-03-22T01:51:06;100649.91;;;10.84;100.00
9421;BME280;4749;51.398;5.466;2023-03-22T01:53:58;100644.66;;;10.84;100.00
9421;BME280;4749;51.398;5.466;2023-03-22T01:56:31;100650.78;;;10.84;100.00
9421;BME280;4749;51.398;5.466;2023-03-22T01:59:00;100643.78;;;10.88;100.00
9421;BME280;4749;51.398;5.466;2023-03-22T02:01:29;100643.78;;;10.88;100.00
9421;BME280;4749;51.398;5.466;2023-03-22T02:04:07;100637.66;;;10.89;100.00
9421;BME280;4749;51.398;5.466;2023-03-22T02:06:37;100633.25;;;10.89;100.00
9421;BME280;4749;51.398;5.466;2023-03-22T02:09:07;100624.50;;;10.89;100.00
9421;BME280;4749;51.398;5.466;2023-03-22T02:11:42;100628.88;;;10.88;100.00
9421;BME280;4749;51.398;5.466;2023-03-22T02:14:30;100618.34;;;10.88;100.00
9421;BME280;4749;51.398;5.466;2023-03-22T02:22:47;100620.97;;;10.96;100.00
9421;BME280;4749;51.398;5.466;2023-03-22T02:45:32;100613.06;;;11.05;100.00
9421;BME280;4749;51.398;5.466;2023-03-22T02:48:30;100604.28;;;11.06;100.00
9421;BME280;4749;51.398;5.466;2023-03-22T02:51:14;100605.16;;;11.05;100.00
9421;BME280;4749;51.398;5.466;2023-03-22T02:54:08;100600.75;;;11.07;100.00
9421;BME280;4749;51.398;5.466;2023-03-22T02:56:51;100598.13;;;11.09;100.00
9421;BME280;4749;51.398;5.466;2023-03-22T02:59:22;100601.63;;;11.09;100.00
9421;BME280;4749;51.398;5.466;2023-03-22T03:01:57;100587.63;;;11.07;100.00
9421;BME280;4749;51.398;5.466;2023-03-22T03:04:37;100588.50;;;11.06;100.00
9421;BME280;4749;51.398;5.466;2023-03-22T03:07:08;100582.34;;;11.07;100.00
9421;BME280;4749;51.398;5.466;2023-03-22T03:09:39;100579.72;;;11.06;100.00
9421;BME280;4749;51.398;5.466;2023-03-22T03:12:20;100577.09;;;11.07;100.00
9421;BME280;4749;51.398;5.466;2023-03-22T03:14:47;100567.47;;;11.05;100.00
9421;BME280;4749;51.398;5.466;2023-03-22T03:17:59;100574.47;;;11.04;100.00
9421;BME280;4749;51.398;5.466;2023-03-22T03:21:47;100567.47;;;11.03;100.00
9421;BME280;4749;51.398;5.466;2023-03-22T03:24:56;100567.50;;;11.02;100.00
9421;BME280;4749;51.398;5.466;2023-03-22T03:27:35;100565.72;;;11.02;100.00
9421;BME280;4749;51.398;5.466;2023-03-22T03:30:15;100565.69;;;11.08;100.00
9421;BME280;4749;51.398;5.466;2023-03-22T03:32:59;100557.78;;;11.10;100.00
9421;BME280;4749;51.398;5.466;2023-03-22T03:35:43;100558.69;;;11.04;100.00
9421;BME280;4749;51.398;5.466;2023-03-22T03:38:16;100556.94;;;11.03;100.00
9421;BME280;4749;51.398;5.466;2023-03-22T03:40:49;100566.59;;;11.04;100.00
9421;BME280;4749;51.398;5.466;2023-03-22T03:43:18;100559.56;;;11.06;100.00
9421;BME280;4749;51.398;5.466;2023-03-22T03:45:46;100566.59;;;11.04;100.00
9421;BME280;4749;51.398;5.466;2023-03-22T03:48:19;100559.53;;;11.08;100.00
9421;BME280;4749;51.398;5.466;2023-03-22T03:50:51;100559.53;;;11.09;100.00
9421;BME280;4749;51.398;5.466;2023-03-22T03:53:18;100560.41;;;11.08;100.00
9421;BME280;4749;51.398;5.466;2023-03-22T03:55:46;100568.31;;;11.08;100.00
9421;BME280;4749;51.398;5.466;2023-03-22T03:58:13;100575.31;;;11.09;100.00
9421;BME280;4749;51.398;5.466;2023-03-22T04:00:43;100577.06;;;11.09;100.00
9421;BME280;4749;51.398;5.466;2023-03-22T04:03:14;100563.06;;;11.05;100.00
9421;BME280;4749;51.398;5.466;2023-03-22T04:05:42;100562.22;;;11.02;100.00
9421;BME280;4749;51.398;5.466;2023-03-22T04:08:09;100562.22;;;10.98;100.00
9421;BME280;4749;51.398;5.466;2023-03-22T04:10:36;100568.38;;;10.96;100.00
9421;BME280;4749;51.398;5.466;2023-03-22T04:13:04;100568.38;;;10.96;100.00
9421;BME280;4749;51.398;5.466;2023-03-22T04:15:31;100567.50;;;10.91;100.00
9421;BME280;4749;51.398;5.466;2023-03-22T04:17:59;100572.78;;;10.88;100.00
9421;BME280;4749;51.398;5.466;2023-03-22T04:20:26;100564.00;;;10.84;100.00
9421;BME280;4749;51.398;5.466;2023-03-22T04:22:53;100563.13;;;10.84;100.00
9421;BME280;4749;51.398;5.466;2023-03-22T04:25:20;100557.91;;;10.79;100.00
9421;BME280;4749;51.398;5.466;2023-03-22T04:27:48;100557.91;;;10.81;100.00
9421;BME280;4749;51.398;5.466;2023-03-22T04:30:17;100555.28;;;10.79;100.00
9421;BME280;4749;51.398;5.466;2023-03-22T04:32:49;100550.03;;;10.78;100.00
9421;BME280;4749;51.398;5.466;2023-03-22T04:35:16;100543.00;;;10.77;100.00
9421;BME280;4749;51.398;5.466;2023-03-22T04:37:44;100545.66;;;10.72;100.00
9421;BME280;4749;51.398;5.466;2023-03-22T04:40:12;100554.41;;;10.71;100.00
9421;BME280;4749;51.398;5.466;2023-03-22T04:42:43;100537.78;;;10.70;100.00
9421;BME280;4749;51.398;5.466;2023-03-22T04:45:11;100552.66;;;10.71;100.00
9421;BME280;4749;51.398;5.466;2023-03-22T04:47:39;100552.66;;;10.70;100.00
9421;BME280;4749;51.398;5.466;2023-03-22T04:50:07;100546.53;;;10.73;100.00
9421;BME280;4749;51.398;5.466;2023-03-22T04:52:35;100540.41;;;10.69;100.00
9421;BME280;4749;51.398;5.466;2023-03-22T04:55:02;100539.50;;;10.71;100.00
9421;BME280;4749;51.398;5.466;2023-03-22T04:57:29;100543.88;;;10.74;100.00
9421;BME280;4749;51.398;5.466;2023-03-22T04:59:56;100533.34;;;10.76;100.00
9421;BME280;4749;51.398;5.466;2023-03-22T05:02:23;100543.88;;;10.79;100.00
9421;BME280;4749;51.398;5.466;2023-03-22T05:04:50;100537.72;;;10.81;100.00
9421;BME280;4749;51.398;5.466;2023-03-22T05:07:18;100534.22;;;10.81;100.00
9421;BME280;4749;51.398;5.466;2023-03-22T05:09:45;100537.72;;;10.84;100.00
9421;BME280;4749;51.398;5.466;2023-03-22T05:12:12;100534.19;;;10.88;100.00
9421;BME280;4749;51.398;5.466;2023-03-22T05:14:39;100539.47;;;10.87;100.00
9421;BME280;4749;51.398;5.466;2023-03-22T05:17:07;100538.56;;;10.89;100.00
9421;BME280;4749;51.398;5.466;2023-03-22T05:19:34;100538.59;;;10.88;100.00
9421;BME280;4749;51.398;5.466;2023-03-22T05:22:01;100530.72;;;10.86;100.00
9421;BME280;4749;51.398;5.466;2023-03-22T05:24:30;100532.47;;;10.86;100.00
9421;BME280;4749;51.398;5.466;2023-03-22T05:26:57;100525.44;;;10.86;100.00
9421;BME280;4749;51.398;5.466;2023-03-22T05:29:27;100522.84;;;10.85;100.00
9421;BME280;4749;51.398;5.466;2023-03-22T05:31:54;100521.94;;;10.86;100.00
9421;BME280;4749;51.398;5.466;2023-03-22T05:34:21;100517.56;;;10.86;100.00
9421;BME280;4749;51.398;5.466;2023-03-22T05:36:48;100527.19;;;10.87;100.00
9421;BME280;4749;51.398;5.466;2023-03-22T05:39:19;100528.06;;;10.88;100.00
9421;BME280;4749;51.398;5.466;2023-03-22T05:41:48;100526.31;;;10.90;100.00
9421;BME280;4749;51.398;5.466;2023-03-22T05:44:15;100528.06;;;10.89;100.00
9421;BME280;4749;51.398;5.466;2023-03-22T05:46:42;100539.44;;;10.91;100.00
9421;BME280;4749;51.398;5.466;2023-03-22T05:49:09;100529.81;;;10.93;100.00
9421;BME280;4749;51.398;5.466;2023-03-22T05:51:38;100527.19;;;10.93;100.00
9421;BME280;4749;51.398;5.466;2023-03-22T05:54:08;100525.44;;;10.94;100.00
9421;BME280;4749;51.398;5.466;2023-03-22T05:56:35;100522.78;;;10.92;100.00
9421;BME280;4749;51.398;5.466;2023-03-22T05:59:03;100536.81;;;10.96;100.00
9421;BME280;4749;51.398;5.466;2023-03-22T06:01:30;100540.31;;;10.98;100.00
9421;BME280;4749;51.398;5.466;2023-03-22T06:03:59;100541.19;;;11.02;100.00
9421;BME280;4749;51.398;5.466;2023-03-22T06:06:26;100551.66;;;11.06;100.00
9421;BME280;4749;51.398;5.466;2023-03-22T06:08:54;100548.16;;;11.10;100.00
9421;BME280;4749;51.398;5.466;2023-03-22T06:11:40;100535.81;;;11.17;100.00
9421;BME280;4749;51.398;5.466;2023-03-22T06:14:10;100531.44;;;11.20;100.00
9421;BME280;4749;51.398;5.466;2023-03-22T06:16:37;100536.69;;;11.23;100.00
9421;BME280;4749;51.398;5.466;2023-03-22T06:19:04;100527.03;;;11.22;100.00
9421;BME280;4749;51.398;5.466;2023-03-22T06:21:31;100521.75;;;11.25;100.00
9421;BME280;4749;51.398;5.466;2023-03-22T06:23:58;100530.53;;;11.29;100.00
9421;BME280;4749;51.398;5.466;2023-03-22T06:26:26;100533.13;;;11.32;100.00
9421;BME280;4749;51.398;5.466;2023-03-22T06:28:54;100519.94;;;11.38;100.00
9421;BME280;4749;51.398;5.466;2023-03-22T06:31:21;100526.94;;;11.41;100.00
9421;BME280;4749;51.398;5.466;2023-03-22T06:33:48;100529.53;;;11.48;100.00
9421;BME280;4749;51.398;5.466;2023-03-22T06:36:15;100533.88;;;11.55;100.00
9421;BME280;4749;51.398;5.466;2023-03-22T06:38:42;100533.81;;;11.63;100.00
9421;BME280;4749;51.398;5.466;2023-03-22T06:41:10;100535.53;;;11.70;100.00
9421;BME280;4749;51.398;5.466;2023-03-22T06:43:37;100537.25;;;11.74;100.00
9421;BME280;4749;51.398;5.466;2023-03-22T06:46:04;100533.72;;;11.78;100.00
9421;BME280;4749;51.398;5.466;2023-03-22T06:48:32;100536.38;;;11.81;100.00
9421;BME280;4749;51.398;5.466;2023-03-22T06:50:59;100550.34;;;11.91;100.00
9421;BME280;4749;51.398;5.466;2023-03-22T06:53:26;100531.84;;;11.99;100.00
9421;BME280;4749;51.398;5.466;2023-03-22T06:55:54;100538.75;;;12.10;100.00
9421;BME280;4749;51.398;5.466;2023-03-22T06:58:21;100547.41;;;12.29;100.00
9421;BME280;4749;51.398;5.466;2023-03-22T07:00:48;100539.34;;;12.46;100.00
9421;BME280;4749;51.398;5.466;2023-03-22T07:03:15;100537.34;;;12.66;100.00
9421;BME280;4749;51.398;5.466;2023-03-22T07:05:43;100538.84;;;12.90;100.00
9421;BME280;4749;51.398;5.466;2023-03-22T07:08:10;100525.50;;;13.03;100.00
9421;BME280;4749;51.398;5.466;2023-03-22T07:10:37;100530.78;;;13.03;100.00
9421;BME280;4749;51.398;5.466;2023-03-22T07:13:05;100531.75;;;12.95;100.00
9421;BME280;4749;51.398;5.466;2023-03-22T07:15:32;100530.00;;;12.93;100.00
9421;BME280;4749;51.398;5.466;2023-03-22T07:18:01;100530.06;;;12.90;100.00
9421;BME280;4749;51.398;5.466;2023-03-22T07:20:28;100534.47;;;12.89;100.00
9421;BME280;4749;51.398;5.466;2023-03-22T07:22:55;100536.22;;;12.90;100.00
9421;BME280;4749;51.398;5.466;2023-03-22T07:25:23;100532.63;;;12.94;100.00
9421;BME280;4749;51.398;5.466;2023-03-22T07:27:50;100532.59;;;12.99;100.00
9421;BME280;4749;51.398;5.466;2023-03-22T07:30:20;100539.53;;;13.06;100.00
9421;BME280;4749;51.398;5.466;2023-03-22T07:32:48;100545.56;;;13.16;100.00
9421;BME280;4749;51.398;5.466;2023-03-22T07:35:15;100534.09;;;13.21;100.00
9421;BME280;4749;51.398;5.466;2023-03-22T07:37:43;100539.28;;;13.28;100.00
9421;BME280;4749;51.398;5.466;2023-03-22T07:40:11;100538.41;;;13.30;100.00
9421;BME280;4749;51.398;5.466;2023-03-22T07:42:38;100535.66;;;13.38;100.00
9421;BME280;4749;51.398;5.466;2023-03-22T07:45:06;100539.94;;;13.46;100.00
9421;BME280;4749;51.398;5.466;2023-03-22T07:47:33;100541.50;;;13.58;100.00
9421;BME280;4749;51.398;5.466;2023-03-22T07:50:11;100550.16;;;13.69;100.00
9421;BME280;4749;51.398;5.466;2023-03-22T07:52:40;100551.69;;;13.84;100.00
9421;BME280;4749;51.398;5.466;2023-03-22T07:55:10;100550.59;;;13.99;100.00
9421;BME280;4749;51.398;5.466;2023-03-22T07:57:38;100545.06;;;14.14;100.00
9421;BME280;4749;51.398;5.466;2023-03-22T08:00:07;100544.81;;;14.28;100.00
9421;BME280;4749;51.398;5.466;2023-03-22T08:02:38;100542.91;;;14.36;100.00
9421;BME280;4749;51.398;5.466;2023-03-22T08:05:06;100546.25;;;14.49;100.00
9421;BME280;4749;51.398;5.466;2023-03-22T08:07:33;100540.72;;;14.61;100.00
9421;BME280;4749;51.398;5.466;2023-03-22T08:10:01;100541.50;;;14.66;100.00
9421;BME280;4749;51.398;5.466;2023-03-22T08:12:28;100546.91;;;14.60;100.00
9421;BME280;4749;51.398;5.466;2023-03-22T08:14:55;100547.88;;;14.56;100.00
9421;BME280;4749;51.398;5.466;2023-03-22T08:17:26;100557.44;;;14.64;100.00
9421;BME280;4749;51.398;5.466;2023-03-22T08:19:53;100550.31;;;14.67;100.00
9421;BME280;4749;51.398;5.466;2023-03-22T08:22:21;100564.63;;;14.56;100.00
9421;BME280;4749;51.398;5.466;2023-03-22T08:24:51;100567.31;;;14.55;100.00
9421;BME280;4749;51.398;5.466;2023-03-22T08:27:19;100564.50;;;14.62;100.00
9421;BME280;4749;51.398;5.466;2023-03-22T08:29:47;100572.22;;;14.75;100.00
9421;BME280;4749;51.398;5.466;2023-03-22T08:32:16;100555.81;;;15.02;100.00
9421;BME280;4749;51.398;5.466;2023-03-22T08:34:43;100556.09;;;15.32;100.00
9421;BME280;4749;51.398;5.466;2023-03-22T08:37:11;100556.34;;;15.60;100.00
9421;BME280;4749;51.398;5.466;2023-03-22T08:39:39;100553.94;;;15.88;100.00
9421;BME280;4749;51.398;5.466;2023-03-22T08:42:06;100541.25;;;16.02;100.00
9421;BME280;4749;51.398;5.466;2023-03-22T08:44:33;100543.66;;;16.11;100.00
9421;BME280;4749;51.398;5.466;2023-03-22T08:47:00;100557.66;;;16.18;100.00
9421;BME280;4749;51.398;5.466;2023-03-22T08:49:29;100539.97;;;16.18;100.00
9421;BME280;4749;51.398;5.466;2023-03-22T08:51:57;100547.63;;;16.29;100.00
9421;BME280;4749;51.398;5.466;2023-03-22T08:54:24;100545.47;;;16.45;100.00
9421;BME280;4749;51.398;5.466;2023-03-22T08:56:54;100547.91;;;16.52;100.00
9421;BME280;4749;51.398;5.466;2023-03-22T08:59:22;100563.88;;;16.51;100.00
9421;BME280;4749;51.398;5.466;2023-03-22T09:01:49;100547.19;;;16.46;100.00
9421;BME280;4749;51.398;5.466;2023-03-22T09:04:17;100556.06;;;16.45;100.00
9421;BME280;4749;51.398;5.466;2023-03-22T09:06:44;100548.88;;;16.50;100.00
9421;BME280;4749;51.398;5.466;2023-03-22T09:09:13;100557.56;;;16.55;100.00
9421;BME280;4749;51.398;5.466;2023-03-22T09:11:40;100542.56;;;16.54;100.00
9421;BME280;4749;51.398;5.466;2023-03-22T09:14:09;100541.66;;;16.55;100.00
9421;BME280;4749;51.398;5.466;2023-03-22T09:16:36;100541.22;;;16.72;100.00
9421;BME280;4749;51.398;5.466;2023-03-22T09:19:03;100533.66;;;16.91;100.00
9421;BME280;4749;51.398;5.466;2023-03-22T09:21:30;100536.84;;;17.02;100.00
9421;BME280;4749;51.398;5.466;2023-03-22T09:23:58;100531.31;;;17.09;100.00
9421;BME280;4749;51.398;5.466;2023-03-22T09:26:25;100522.28;;;17.16;100.00
9421;BME280;4749;51.398;5.466;2023-03-22T09:28:53;100534.34;;;17.27;100.00
9421;BME280;4749;51.398;5.466;2023-03-22T09:31:20;100532.41;;;17.32;100.00
9421;BME280;4749;51.398;5.466;2023-03-22T09:33:48;100527.03;;;17.35;100.00
9421;BME280;4749;51.398;5.466;2023-03-22T09:36:15;100527.03;;;17.35;100.00
9421;BME280;4749;51.398;5.466;2023-03-22T09:38:42;100527.25;;;17.27;100.00
9421;BME280;4749;51.398;5.466;2023-03-22T09:41:58;100530.94;;;17.22;100.00
9421;BME280;4749;51.398;5.466;2023-03-22T09:44:41;100531.94;;;17.19;100.00
9421;BME280;4749;51.398;5.466;2023-03-22T09:47:30;100524.94;;;17.15;100.00
9421;BME280;4749;51.398;5.466;2023-03-22T09:50:20;100520.38;;;16.91;100.00
9421;BME280;4749;51.398;5.466;2023-03-22T09:52:49;100525.91;;;16.81;100.00
9421;BME280;4749;51.398;5.466;2023-03-22T09:55:29;100520.97;;;16.69;100.00
9421;BME280;4749;51.398;5.466;2023-03-22T10:04:33;100529.97;;;16.28;100.00
9421;BME280;4749;51.398;5.466;2023-03-22T10:10:07;100521.38;;;16.18;100.00
9421;BME280;4749;51.398;5.466;2023-03-22T10:15:16;100513.88;;;16.01;100.00
9421;BME280;4749;51.398;5.466;2023-03-22T10:17:50;100507.88;;;15.93;100.00
9421;BME280;4749;51.398;5.466;2023-03-22T10:20:44;100508.47;;;16.04;100.00
9421;BME280;4749;51.398;5.466;2023-03-22T10:23:18;100526.16;;;16.04;100.00
9421;BME280;4749;51.398;5.466;2023-03-22T10:25:46;100509.56;;;15.96;100.00
9421;BME280;4749;51.398;5.466;2023-03-22T10:28:26;100511.41;;;15.94;100.00
9421;BME280;4749;51.398;5.466;2023-03-22T10:30:56;100508.06;;;15.86;100.00
9421;BME280;4749;51.398;5.466;2023-03-22T10:33:39;100522.53;;;15.71;100.00
9421;BME280;4749;51.398;5.466;2023-03-22T10:36:12;100524.75;;;15.51;100.00
9421;BME280;4749;51.398;5.466;2023-03-22T10:38:48;100525.06;;;15.37;100.00
9421;BME280;4749;51.398;5.466;2023-03-22T10:41:17;100527.94;;;15.26;100.00
9421;BME280;4749;51.398;5.466;2023-03-22T10:43:49;100522.78;;;15.20;100.00
9421;BME280;4749;51.398;5.466;2023-03-22T10:46:22;100512.22;;;15.18;100.00
9421;BME280;4749;51.398;5.466;2023-03-22T10:48:55;100520.00;;;15.26;100.00
9421;BME280;4749;51.398;5.466;2023-03-22T10:51:34;100517.72;;;15.49;100.00
9421;BME280;4749;51.398;5.466;2023-03-22T10:54:03;100519.25;;;15.60;100.00
9421;BME280;4749;51.398;5.466;2023-03-22T10:56:31;100521.03;;;15.61;100.00
9421;BME280;4749;51.398;5.466;2023-03-22T10:58:58;100517.69;;;15.51;100.00
9421;BME280;4749;51.398;5.466;2023-03-22T11:01:34;100518.50;;;15.53;100.00
9421;BME280;4749;51.398;5.466;2023-03-22T11:04:10;100527.38;;;15.52;100.00
9421;BME280;4749;51.398;5.466;2023-03-22T11:06:51;100539.66;;;15.55;100.00
9421;BME280;4749;51.398;5.466;2023-03-22T11:09:23;100525.59;;;15.53;100.00
9421;BME280;4749;51.398;5.466;2023-03-22T11:11:59;100524.53;;;15.60;100.00
9421;BME280;4749;51.398;5.466;2023-03-22T11:14:41;100516.78;;;15.52;100.00
9421;BME280;4749;51.398;5.466;2023-03-22T11:17:12;100524.16;;;15.38;100.00
9421;BME280;4749;51.398;5.466;2023-03-22T11:20:12;100512.81;;;15.33;100.00
9421;BME280;4749;51.398;5.466;2023-03-22T11:22:47;100517.03;;;15.41;100.00
9421;BME280;4749;51.398;5.466;2023-03-22T11:25:27;100519.63;;;15.43;100.00
9421;BME280;4749;51.398;5.466;2023-03-22T11:30:35;100522.69;;;15.25;100.00
9421;BME280;4749;51.398;5.466;2023-03-22T11:33:20;100514.69;;;15.26;100.00
9421;BME280;4749;51.398;5.466;2023-03-22T11:35:58;100515.44;;;15.33;100.00
9421;BME280;4749;51.398;5.466;2023-03-22T11:38:40;100515.53;;;15.28;100.00
9421;BME280;4749;51.398;5.466;2023-03-22T11:41:38;100513.97;;;15.19;100.00
9421;BME280;4749;51.398;5.466;2023-03-22T11:44:12;100518.16;;;15.30;100.00
9421;BME280;4749;51.398;5.466;2023-03-22T11:46:55;100509.00;;;15.44;100.00
9421;BME280;4749;51.398;5.466;2023-03-22T11:49:32;100502.25;;;15.70;100.00
9421;BME280;4749;51.398;5.466;2023-03-22T11:52:16;100504.41;;;15.91;100.00
9421;BME280;4749;51.398;5.466;2023-03-22T11:54:45;100502.97;;;16.12;100.00
9421;BME280;4749;51.398;5.466;2023-03-22T11:57:22;100508.81;;;16.26;100.00
9421;BME280;4749;51.398;5.466;2023-03-22T12:00:17;100516.72;;;16.28;100.00
9421;BME280;4749;51.398;5.466;2023-03-22T12:03:13;100508.81;;;16.26;100.00
9421;BME280;4749;51.398;5.466;2023-03-22T12:05:45;100498.16;;;16.28;100.00
9421;BME280;4749;51.398;5.466;2023-03-22T12:11:53;100500.31;;;16.12;100.00
9421;BME280;4749;51.398;5.466;2023-03-22T12:14:15;100497.84;;;16.06;100.00
9421;BME280;4749;51.398;5.466;2023-03-22T12:16:50;100490.97;;;15.99;100.00
9421;BME280;4749;51.398;5.466;2023-03-22T12:20:26;100486.66;;;15.93;100.00
9421;BME280;4749;51.398;5.466;2023-03-22T12:22:56;100484.13;;;15.89;100.00
9421;BME280;4749;51.398;5.466;2023-03-22T12:25:29;100485.03;;;15.88;100.00
9421;BME280;4749;51.398;5.466;2023-03-22T12:28:13;100483.44;;;15.82;100.00
9421;BME280;4749;51.398;5.466;2023-03-22T12:30:52;100476.41;;;15.80;100.00
9421;BME280;4749;51.398;5.466;2023-03-22T12:33:46;100469.16;;;15.86;100.00
9421;BME280;4749;51.398;5.466;2023-03-22T12:36:20;100467.09;;;15.99;100.00
9421;BME280;4749;51.398;5.466;2023-03-22T12:38:55;100470.53;;;16.02;100.00
9421;BME280;4749;51.398;5.466;2023-03-22T12:41:40;100482.00;;;16.03;100.00
9421;BME280;4749;51.398;5.466;2023-03-22T12:44:39;100471.63;;;15.94;100.00
9421;BME280;4749;51.398;5.466;2023-03-22T12:52:47;100466.88;;;15.72;100.00
9421;BME280;4749;51.398;5.466;2023-03-22T12:55:28;100479.34;;;15.67;100.00
9421;BME280;4749;51.398;5.466;2023-03-22T12:57:57;100473.38;;;15.58;100.00
9421;BME280;4749;51.398;5.466;2023-03-22T13:03:49;100479.16;;;15.36;100.00
9421;BME280;4749;51.398;5.466;2023-03-22T13:06:55;100481.75;;;15.38;100.00
9421;BME280;4749;51.398;5.466;2023-03-22T13:09:40;100485.44;;;15.32;100.00
9421;BME280;4749;51.398;5.466;2023-03-22T13:30:34;100471.03;;;15.05;100.00
9421;BME280;4749;51.398;5.466;2023-03-22T13:41:08;100466.59;;;15.07;100.00
9421;BME280;4749;51.398;5.466;2023-03-22T13:43:51;100470.97;;;15.08;100.00
9421;BME280;4749;51.398;5.466;2023-03-22T14:02:16;100456.91;;;15.05;100.00
9421;BME280;4749;51.398;5.466;2023-03-22T14:05:00;100452.50;;;15.05;100.00
9421;BME280;4749;51.398;5.466;2023-03-22T14:07:51;100457.72;;;15.08;100.00
9421;BME280;4749;51.398;5.466;2023-03-22T14:10:47;100457.56;;;15.16;100.00
9421;BME280;4749;51.398;5.466;2023-03-22T14:13:45;100458.50;;;15.13;100.00
9421;BME280;4749;51.398;5.466;2023-03-22T14:16:41;100466.66;;;15.03;100.00
9421;BME280;4749;51.398;5.466;2023-03-22T14:19:21;100451.81;;;14.96;100.00
9421;BME280;4749;51.398;5.466;2023-03-22T14:21:55;100455.56;;;14.85;100.00
9421;BME280;4749;51.398;5.466;2023-03-22T14:24:24;100442.53;;;14.76;100.00
9421;BME280;4749;51.398;5.466;2023-03-22T14:26:55;100439.97;;;14.73;100.00
9421;BME280;4749;51.398;5.466;2023-03-22T14:29:25;100444.22;;;14.80;100.00
9421;BME280;4749;51.398;5.466;2023-03-22T14:32:02;100428.19;;;14.86;100.00
9421;BME280;4749;51.398;5.466;2023-03-22T14:34:33;100432.50;;;14.92;100.00
9421;BME280;4749;51.398;5.466;2023-03-22T14:37:04;100425.19;;;15.03;100.00
9421;BME280;4749;51.398;5.466;2023-03-22T14:39:38;100429.56;;;15.06;100.00
9421;BME280;4749;51.398;5.466;2023-03-22T14:44:51;100429.63;;;15.01;100.00
9421;BME280;4749;51.398;5.466;2023-03-22T14:49:57;100419.06;;;15.01;100.00
9421;BME280;4749;51.398;5.466;2023-03-22T14:52:35;100423.53;;;14.99;100.00
9421;BME280;4749;51.398;5.466;2023-03-22T14:55:09;100425.25;;;15.00;100.00
9421;BME280;4749;51.398;5.466;2023-03-22T14:57:59;100423.13;;;15.16;100.00
9421;BME280;4749;51.398;5.466;2023-03-22T15:00:26;100415.06;;;15.22;100.00
9421;BME280;4749;51.398;5.466;2023-03-22T15:02:59;100409.66;;;15.27;100.00
9421;BME280;4749;51.398;5.466;2023-03-22T15:05:32;100408.63;;;15.32;100.00
9421;BME280;4749;51.398;5.466;2023-03-22T15:08:23;100410.19;;;15.41;100.00
9421;BME280;4749;51.398;5.466;2023-03-22T15:11:06;100414.66;;;15.39;100.00
9421;BME280;4749;51.398;5.466;2023-03-22T15:13:37;100404.13;;;15.36;100.00